HUN730 EGPH-LHBP
Flight info
| Callsign | HUN730 |
|---|---|
| Flight time | 2h 27m |
| Altitude | 37000 |
| Route | TLA Y96 AGPED DCT ERKIT L602 OTR L90 DOLAS DCT NAVPI DCT TIVUN DCT ESAMA DCT OSBIT DCT KOMIB DCT TONSU Z650 VEMUT DCT BUDEX DCT MAREG DCT ANEXA |
| Aircraft | A21N/M-SDE2E3FGHIJ1RWXY/LB1 |
Departure
| Time | 2026-04-26 11:47 |
|---|---|
| Airport | Edinburgh Airport (EGPH) |
Arrival
| Time | 2026-04-26 14:15 |
|---|---|
| Airport | Budapest Liszt Ferenc International Airport (LHBP) |
| Time | Latitude | Longitude | Altitude | Speed | Heading |
|---|---|---|---|---|---|
| 2026-04-26 11:17 | 55.94855 | -3.35866 | 106 ft | 0 kts | 209° |
| 2026-04-26 11:37 | 55.94864 | -3.35857 | 106 ft | 2 kts | 209° |
| 2026-04-26 11:37 | 55.94878 | -3.35843 | 107 ft | 2 kts | 221° |
| 2026-04-26 11:37 | 55.94888 | -3.35824 | 107 ft | 2 kts | 236° |
| 2026-04-26 11:37 | 55.94894 | -3.35800 | 107 ft | 2 kts | 253° |
| 2026-04-26 11:38 | 55.94897 | -3.35774 | 107 ft | 2 kts | 268° |
| 2026-04-26 11:38 | 55.94896 | -3.35747 | 107 ft | 2 kts | 283° |
| 2026-04-26 11:38 | 55.94892 | -3.35725 | 107 ft | 0 kts | 297° |
| 2026-04-26 11:38 | 55.94889 | -3.35715 | 107 ft | 0 kts | 299° |
| 2026-04-26 11:39 | 55.94889 | -3.35714 | 107 ft | 0 kts | 299° |
| 2026-04-26 11:39 | 55.94889 | -3.35715 | 107 ft | 0 kts | 299° |
| 2026-04-26 11:42 | 55.94936 | -3.35846 | 107 ft | 5 kts | 322° |
| 2026-04-26 11:43 | 55.94978 | -3.35861 | 107 ft | 6 kts | 12° |
| 2026-04-26 11:43 | 55.95025 | -3.35824 | 107 ft | 7 kts | 28° |
| 2026-04-26 11:43 | 55.95077 | -3.35792 | 107 ft | 8 kts | 352° |
| 2026-04-26 11:43 | 55.95118 | -3.35866 | 106 ft | 9 kts | 302° |
| 2026-04-26 11:44 | 55.95166 | -3.35950 | 106 ft | 10 kts | 330° |
| 2026-04-26 11:44 | 55.95235 | -3.35964 | 106 ft | 11 kts | 38° |
| 2026-04-26 11:44 | 55.95280 | -3.35849 | 106 ft | 11 kts | 59° |
| 2026-04-26 11:44 | 55.95322 | -3.35723 | 106 ft | 12 kts | 59° |
| 2026-04-26 11:45 | 55.95367 | -3.35591 | 106 ft | 12 kts | 59° |
| 2026-04-26 11:45 | 55.95408 | -3.35471 | 106 ft | 9 kts | 59° |
| 2026-04-26 11:45 | 55.95460 | -3.35410 | 106 ft | 9 kts | 352° |
| 2026-04-26 11:45 | 55.95524 | -3.35471 | 105 ft | 11 kts | 329° |
| 2026-04-26 11:46 | 55.95562 | -3.35576 | 105 ft | 11 kts | 258° |
| 2026-04-26 11:46 | 55.95522 | -3.35716 | 105 ft | 23 kts | 242° |
| 2026-04-26 11:46 | 55.95300 | -3.36372 | 106 ft | 98 kts | 238° |
| 2026-04-26 11:46 | 55.94829 | -3.37754 | 107 ft | 159 kts | 239° |
| 2026-04-26 11:47 | 55.94215 | -3.39591 | 512 ft | 175 kts | 240° |
| 2026-04-26 11:47 | 55.93621 | -3.41369 | 1346 ft | 166 kts | 238° |
| 2026-04-26 11:47 | 55.93007 | -3.43117 | 1964 ft | 170 kts | 238° |
| 2026-04-26 11:47 | 55.92363 | -3.44945 | 2394 ft | 184 kts | 237° |
| 2026-04-26 11:48 | 55.91649 | -3.46982 | 2814 ft | 200 kts | 238° |
| 2026-04-26 11:48 | 55.90889 | -3.49168 | 3212 ft | 219 kts | 238° |
| 2026-04-26 11:48 | 55.90057 | -3.51608 | 3619 ft | 240 kts | 239° |
| 2026-04-26 11:48 | 55.89202 | -3.54229 | 4185 ft | 254 kts | 240° |
| 2026-04-26 11:49 | 55.88302 | -3.56953 | 5009 ft | 256 kts | 236° |
| 2026-04-26 11:49 | 55.86991 | -3.59082 | 5594 ft | 258 kts | 207° |
| 2026-04-26 11:49 | 55.85260 | -3.59822 | 5914 ft | 263 kts | 181° |
| 2026-04-26 11:49 | 55.83488 | -3.59057 | 5948 ft | 267 kts | 154° |
| 2026-04-26 11:50 | 55.82092 | -3.56863 | 5949 ft | 272 kts | 126° |
| 2026-04-26 11:50 | 55.81163 | -3.53865 | 5957 ft | 273 kts | 123° |
| 2026-04-26 11:50 | 55.79878 | -3.51487 | 5937 ft | 267 kts | 155° |
| 2026-04-26 11:50 | 55.78152 | -3.50433 | 5960 ft | 265 kts | 167° |
| 2026-04-26 11:51 | 55.76360 | -3.49549 | 5956 ft | 265 kts | 167° |
| 2026-04-26 11:51 | 55.74596 | -3.48639 | 5949 ft | 265 kts | 166° |
| 2026-04-26 11:51 | 55.72831 | -3.47700 | 5951 ft | 265 kts | 166° |
| 2026-04-26 11:51 | 55.71054 | -3.46741 | 5952 ft | 265 kts | 166° |
| 2026-04-26 11:52 | 55.69302 | -3.45789 | 5955 ft | 265 kts | 166° |
| 2026-04-26 11:52 | 55.67525 | -3.44823 | 5953 ft | 265 kts | 166° |
| 2026-04-26 11:52 | 55.65770 | -3.43872 | 5952 ft | 265 kts | 166° |
| 2026-04-26 11:52 | 55.64005 | -3.42913 | 5955 ft | 264 kts | 166° |
| 2026-04-26 11:53 | 55.62244 | -3.41959 | 5955 ft | 265 kts | 165° |
| 2026-04-26 11:53 | 55.60488 | -3.41006 | 5954 ft | 265 kts | 166° |
| 2026-04-26 11:53 | 55.58708 | -3.40040 | 5954 ft | 264 kts | 165° |
| 2026-04-26 11:54 | 55.55199 | -3.38143 | 5954 ft | 265 kts | 165° |
| 2026-04-26 11:54 | 55.53422 | -3.37184 | 5955 ft | 265 kts | 165° |
| 2026-04-26 11:54 | 55.51650 | -3.36184 | 5950 ft | 266 kts | 160° |
| 2026-04-26 11:54 | 55.50150 | -3.34256 | 5935 ft | 272 kts | 130° |
| 2026-04-26 11:55 | 55.49374 | -3.31202 | 6146 ft | 284 kts | 103° |
| 2026-04-26 11:55 | 55.49065 | -3.27776 | 7000 ft | 285 kts | 101° |
| 2026-04-26 11:55 | 55.48734 | -3.24368 | 7863 ft | 286 kts | 102° |
| 2026-04-26 11:55 | 55.48377 | -3.20890 | 8623 ft | 290 kts | 103° |
| 2026-04-26 11:56 | 55.48003 | -3.17358 | 9355 ft | 295 kts | 103° |
| 2026-04-26 11:56 | 55.47625 | -3.13838 | 10087 ft | 298 kts | 103° |
| 2026-04-26 11:56 | 55.47236 | -3.10221 | 10759 ft | 304 kts | 103° |
| 2026-04-26 11:56 | 55.46828 | -3.06448 | 11130 ft | 321 kts | 103° |
| 2026-04-26 11:57 | 55.46376 | -3.02562 | 11452 ft | 337 kts | 106° |
| 2026-04-26 11:57 | 55.45622 | -2.98513 | 11753 ft | 353 kts | 114° |
| 2026-04-26 11:57 | 55.44532 | -2.94590 | 12109 ft | 365 kts | 120° |
| 2026-04-26 11:57 | 55.43298 | -2.90699 | 12725 ft | 370 kts | 121° |
| 2026-04-26 11:58 | 55.42021 | -2.86747 | 13407 ft | 373 kts | 121° |
| 2026-04-26 11:58 | 55.40732 | -2.82751 | 14061 ft | 377 kts | 121° |
| 2026-04-26 11:58 | 55.39441 | -2.78732 | 14658 ft | 381 kts | 121° |
| 2026-04-26 11:58 | 55.38132 | -2.74649 | 15261 ft | 386 kts | 121° |
| 2026-04-26 11:59 | 55.36811 | -2.70532 | 15859 ft | 390 kts | 121° |
| 2026-04-26 11:59 | 55.35487 | -2.66406 | 16441 ft | 394 kts | 121° |
| 2026-04-26 11:59 | 55.34139 | -2.62214 | 17036 ft | 397 kts | 121° |
| 2026-04-26 11:59 | 55.32785 | -2.58009 | 17596 ft | 401 kts | 121° |
| 2026-04-26 12:00 | 55.31414 | -2.53757 | 18149 ft | 404 kts | 121° |
| 2026-04-26 12:00 | 55.30018 | -2.49441 | 18708 ft | 408 kts | 121° |
| 2026-04-26 12:00 | 55.28623 | -2.45134 | 19230 ft | 411 kts | 121° |
| 2026-04-26 12:00 | 55.27211 | -2.40786 | 19737 ft | 415 kts | 121° |
| 2026-04-26 12:01 | 55.25773 | -2.36365 | 20232 ft | 419 kts | 121° |
| 2026-04-26 12:01 | 55.24314 | -2.31887 | 20732 ft | 422 kts | 121° |
| 2026-04-26 12:01 | 55.22872 | -2.27468 | 21207 ft | 426 kts | 121° |
| 2026-04-26 12:01 | 55.21393 | -2.22942 | 21654 ft | 429 kts | 121° |
| 2026-04-26 12:02 | 55.19902 | -2.18387 | 22128 ft | 433 kts | 121° |
| 2026-04-26 12:02 | 55.18411 | -2.13837 | 22543 ft | 437 kts | 121° |
| 2026-04-26 12:02 | 55.16894 | -2.09221 | 22969 ft | 441 kts | 121° |
| 2026-04-26 12:02 | 55.15366 | -2.04587 | 23393 ft | 444 kts | 121° |
| 2026-04-26 12:03 | 55.13795 | -1.99919 | 23802 ft | 447 kts | 124° |
| 2026-04-26 12:03 | 55.11883 | -1.95698 | 24183 ft | 447 kts | 136° |
| 2026-04-26 12:03 | 55.09577 | -1.92163 | 24585 ft | 446 kts | 147° |
| 2026-04-26 12:03 | 55.06937 | -1.89203 | 24997 ft | 447 kts | 152° |
| 2026-04-26 12:04 | 55.04274 | -1.86436 | 25377 ft | 449 kts | 152° |
| 2026-04-26 12:04 | 55.01598 | -1.83683 | 25738 ft | 452 kts | 153° |
| 2026-04-26 12:04 | 54.98893 | -1.80890 | 26097 ft | 455 kts | 153° |
| 2026-04-26 12:04 | 54.96132 | -1.78027 | 26450 ft | 457 kts | 152° |
| 2026-04-26 12:05 | 54.93393 | -1.75177 | 26788 ft | 460 kts | 152° |
| 2026-04-26 12:05 | 54.90673 | -1.72344 | 27118 ft | 462 kts | 152° |
| 2026-04-26 12:05 | 54.87901 | -1.69454 | 27447 ft | 464 kts | 153° |
| 2026-04-26 12:05 | 54.85107 | -1.66545 | 27762 ft | 466 kts | 153° |
| 2026-04-26 12:06 | 54.82314 | -1.63639 | 28048 ft | 468 kts | 153° |
| 2026-04-26 12:06 | 54.79525 | -1.60744 | 28333 ft | 470 kts | 153° |
| 2026-04-26 12:06 | 54.76684 | -1.57798 | 28612 ft | 473 kts | 153° |
| 2026-04-26 12:06 | 54.73860 | -1.54874 | 28984 ft | 472 kts | 153° |
| 2026-04-26 12:07 | 54.71049 | -1.51964 | 29405 ft | 471 kts | 153° |
| 2026-04-26 12:07 | 54.68217 | -1.49040 | 29796 ft | 470 kts | 153° |
| 2026-04-26 12:07 | 54.65400 | -1.46135 | 30156 ft | 470 kts | 153° |
| 2026-04-26 12:07 | 54.62585 | -1.43239 | 30513 ft | 469 kts | 153° |
| 2026-04-26 12:08 | 54.59819 | -1.40400 | 30837 ft | 469 kts | 153° |
| 2026-04-26 12:08 | 54.57000 | -1.37512 | 31148 ft | 469 kts | 153° |
| 2026-04-26 12:08 | 54.54180 | -1.34628 | 31494 ft | 467 kts | 154° |
| 2026-04-26 12:08 | 54.51378 | -1.31761 | 31824 ft | 466 kts | 154° |
| 2026-04-26 12:09 | 54.48627 | -1.28955 | 32138 ft | 465 kts | 154° |
| 2026-04-26 12:09 | 54.45838 | -1.26114 | 32437 ft | 464 kts | 154° |
| 2026-04-26 12:09 | 54.43035 | -1.23262 | 32707 ft | 464 kts | 154° |
| 2026-04-26 12:09 | 54.40232 | -1.20416 | 32951 ft | 464 kts | 154° |
| 2026-04-26 12:10 | 54.37458 | -1.17603 | 33181 ft | 464 kts | 154° |
| 2026-04-26 12:10 | 54.34699 | -1.14809 | 33422 ft | 464 kts | 154° |
| 2026-04-26 12:10 | 54.31908 | -1.11986 | 33678 ft | 463 kts | 154° |
| 2026-04-26 12:10 | 54.29136 | -1.09187 | 33946 ft | 462 kts | 154° |
| 2026-04-26 12:11 | 54.26365 | -1.06392 | 34206 ft | 461 kts | 153° |
| 2026-04-26 12:11 | 54.23588 | -1.03596 | 34448 ft | 460 kts | 154° |
| 2026-04-26 12:11 | 54.20814 | -1.00808 | 34672 ft | 459 kts | 154° |
| 2026-04-26 12:11 | 54.18057 | -0.98041 | 34864 ft | 459 kts | 154° |
| 2026-04-26 12:12 | 54.15337 | -0.95318 | 35040 ft | 459 kts | 153° |
| 2026-04-26 12:12 | 54.12560 | -0.92541 | 35202 ft | 458 kts | 153° |
| 2026-04-26 12:12 | 54.09812 | -0.89748 | 35360 ft | 459 kts | 152° |
| 2026-04-26 12:12 | 54.08040 | -0.87770 | 35465 ft | 460 kts | 149° |
| 2026-04-26 12:13 | 54.04627 | -0.83402 | 35676 ft | 462 kts | 143° |
| 2026-04-26 12:13 | 54.02192 | -0.79749 | 35822 ft | 464 kts | 139° |
| 2026-04-26 12:13 | 53.99932 | -0.75866 | 35963 ft | 465 kts | 135° |
| 2026-04-26 12:13 | 53.97812 | -0.71695 | 36115 ft | 466 kts | 131° |
| 2026-04-26 12:14 | 53.95808 | -0.67302 | 36242 ft | 467 kts | 129° |
| 2026-04-26 12:14 | 53.93840 | -0.62918 | 36357 ft | 467 kts | 129° |
| 2026-04-26 12:14 | 53.91888 | -0.58578 | 36459 ft | 467 kts | 129° |
| 2026-04-26 12:14 | 53.89884 | -0.54144 | 36591 ft | 468 kts | 129° |
| 2026-04-26 12:15 | 53.87899 | -0.49773 | 36736 ft | 468 kts | 129° |
| 2026-04-26 12:15 | 53.85894 | -0.45370 | 36870 ft | 468 kts | 129° |
| 2026-04-26 12:15 | 53.83921 | -0.41051 | 37015 ft | 468 kts | 129° |
| 2026-04-26 12:15 | 53.81928 | -0.36694 | 37134 ft | 468 kts | 129° |
| 2026-04-26 12:16 | 53.79916 | -0.32307 | 37257 ft | 468 kts | 130° |
| 2026-04-26 12:16 | 53.75918 | -0.23617 | 37338 ft | 470 kts | 130° |
| 2026-04-26 12:17 | 53.71720 | -0.15161 | 37341 ft | 469 kts | 136° |
| 2026-04-26 12:17 | 53.67005 | -0.07693 | 37333 ft | 466 kts | 143° |
| 2026-04-26 12:18 | 53.61771 | -0.01231 | 37347 ft | 464 kts | 149° |
| 2026-04-26 12:18 | 53.56432 | 0.04846 | 37352 ft | 464 kts | 148° |
| 2026-04-26 12:19 | 53.51289 | 0.11546 | 37343 ft | 467 kts | 141° |
| 2026-04-26 12:19 | 53.46627 | 0.19116 | 37345 ft | 469 kts | 137° |
| 2026-04-26 12:20 | 53.41992 | 0.26964 | 37351 ft | 469 kts | 137° |
| 2026-04-26 12:20 | 53.37386 | 0.34717 | 37338 ft | 469 kts | 137° |
| 2026-04-26 12:21 | 53.32779 | 0.42434 | 37350 ft | 469 kts | 137° |
| 2026-04-26 12:21 | 53.28194 | 0.50088 | 37347 ft | 469 kts | 137° |
| 2026-04-26 12:22 | 53.23558 | 0.57798 | 37343 ft | 469 kts | 137° |
| 2026-04-26 12:22 | 53.18951 | 0.65429 | 37342 ft | 470 kts | 137° |
| 2026-04-26 12:23 | 53.14285 | 0.73134 | 37331 ft | 471 kts | 137° |
| 2026-04-26 12:23 | 53.09629 | 0.80803 | 37337 ft | 470 kts | 137° |
| 2026-04-26 12:24 | 53.04950 | 0.88479 | 37352 ft | 470 kts | 137° |
| 2026-04-26 12:24 | 53.00568 | 0.96576 | 37346 ft | 472 kts | 129° |
| 2026-04-26 12:25 | 52.95477 | 1.10607 | 37364 ft | 475 kts | 114° |
| 2026-04-26 12:25 | 52.93066 | 1.20821 | 37354 ft | 475 kts | 110° |
| 2026-04-26 12:26 | 52.90753 | 1.31164 | 37359 ft | 476 kts | 110° |
| 2026-04-26 12:26 | 52.88415 | 1.41486 | 37369 ft | 475 kts | 110° |
| 2026-04-26 12:27 | 52.86085 | 1.51669 | 37368 ft | 475 kts | 110° |
| 2026-04-26 12:27 | 52.83731 | 1.61880 | 37358 ft | 475 kts | 110° |
| 2026-04-26 12:28 | 52.81374 | 1.72058 | 37364 ft | 475 kts | 111° |
| 2026-04-26 12:28 | 52.79012 | 1.82208 | 37368 ft | 476 kts | 111° |
| 2026-04-26 12:29 | 52.76618 | 1.92451 | 37368 ft | 477 kts | 111° |
| 2026-04-26 12:30 | 52.73052 | 2.07615 | 37381 ft | 476 kts | 111° |
| 2026-04-26 12:30 | 52.70651 | 2.17765 | 37377 ft | 475 kts | 111° |
| 2026-04-26 12:31 | 52.67047 | 2.32911 | 37370 ft | 475 kts | 111° |
| 2026-04-26 12:31 | 52.64629 | 2.43014 | 37364 ft | 475 kts | 110° |
| 2026-04-26 12:32 | 52.62207 | 2.53087 | 37363 ft | 476 kts | 110° |
| 2026-04-26 12:33 | 52.58566 | 2.68159 | 37362 ft | 475 kts | 111° |
| 2026-04-26 12:33 | 52.56109 | 2.78252 | 37358 ft | 475 kts | 111° |
| 2026-04-26 12:34 | 52.53530 | 2.88182 | 37356 ft | 475 kts | 114° |
| 2026-04-26 12:34 | 52.50735 | 2.97997 | 37358 ft | 475 kts | 115° |
| 2026-04-26 12:35 | 52.47944 | 3.07747 | 37360 ft | 475 kts | 114° |
| 2026-04-26 12:35 | 52.45144 | 3.17506 | 37366 ft | 474 kts | 114° |
| 2026-04-26 12:36 | 52.42353 | 3.27201 | 37375 ft | 474 kts | 114° |
| 2026-04-26 12:36 | 52.39544 | 3.36919 | 37370 ft | 474 kts | 114° |
| 2026-04-26 12:37 | 52.36722 | 3.46649 | 37367 ft | 475 kts | 114° |
| 2026-04-26 12:37 | 52.33890 | 3.56369 | 37358 ft | 475 kts | 114° |
| 2026-04-26 12:38 | 52.31052 | 3.66074 | 37353 ft | 475 kts | 115° |
| 2026-04-26 12:38 | 52.28200 | 3.75781 | 37356 ft | 475 kts | 115° |
| 2026-04-26 12:39 | 52.25343 | 3.85467 | 37350 ft | 474 kts | 115° |
| 2026-04-26 12:39 | 52.22480 | 3.95138 | 37341 ft | 474 kts | 115° |
| 2026-04-26 12:40 | 52.19624 | 4.04744 | 37344 ft | 473 kts | 115° |
| 2026-04-26 12:40 | 52.16727 | 4.14446 | 37347 ft | 474 kts | 115° |
| 2026-04-26 12:41 | 52.13841 | 4.24076 | 37344 ft | 473 kts | 115° |
| 2026-04-26 12:41 | 52.10934 | 4.33742 | 37351 ft | 473 kts | 115° |
| 2026-04-26 12:42 | 52.08034 | 4.43339 | 37340 ft | 473 kts | 115° |
| 2026-04-26 12:42 | 52.05097 | 4.53019 | 37342 ft | 473 kts | 115° |
| 2026-04-26 12:43 | 52.02202 | 4.62522 | 37335 ft | 472 kts | 115° |
| 2026-04-26 12:43 | 51.99306 | 4.71994 | 37337 ft | 471 kts | 116° |
| 2026-04-26 12:44 | 51.96384 | 4.81513 | 37340 ft | 471 kts | 116° |
| 2026-04-26 12:44 | 51.93443 | 4.91060 | 37337 ft | 471 kts | 116° |
| 2026-04-26 12:45 | 51.90504 | 5.00560 | 37331 ft | 472 kts | 116° |
| 2026-04-26 12:45 | 51.87556 | 5.10054 | 37330 ft | 471 kts | 116° |
| 2026-04-26 12:46 | 51.84598 | 5.19540 | 37329 ft | 471 kts | 116° |
| 2026-04-26 12:46 | 51.81645 | 5.28971 | 37330 ft | 471 kts | 116° |
| 2026-04-26 12:47 | 51.78663 | 5.38461 | 37326 ft | 470 kts | 116° |
| 2026-04-26 12:47 | 51.75702 | 5.47847 | 37326 ft | 470 kts | 116° |
| 2026-04-26 12:48 | 51.72702 | 5.57324 | 37325 ft | 469 kts | 116° |
| 2026-04-26 12:48 | 51.69736 | 5.66658 | 37325 ft | 469 kts | 117° |
| 2026-04-26 12:49 | 51.66764 | 5.75972 | 37326 ft | 469 kts | 117° |
| 2026-04-26 12:49 | 51.63766 | 5.85330 | 37326 ft | 469 kts | 117° |
| 2026-04-26 12:50 | 51.60780 | 5.94617 | 37323 ft | 468 kts | 117° |
| 2026-04-26 12:50 | 51.57768 | 6.03948 | 37324 ft | 468 kts | 117° |
| 2026-04-26 12:51 | 51.54768 | 6.13210 | 37326 ft | 468 kts | 117° |
| 2026-04-26 12:51 | 51.51743 | 6.22514 | 37324 ft | 467 kts | 117° |
| 2026-04-26 12:52 | 51.48720 | 6.31775 | 37323 ft | 467 kts | 117° |
| 2026-04-26 12:52 | 51.45688 | 6.41029 | 37322 ft | 467 kts | 117° |
| 2026-04-26 12:53 | 51.42653 | 6.50261 | 37316 ft | 467 kts | 117° |
| 2026-04-26 12:53 | 51.39605 | 6.59492 | 37315 ft | 467 kts | 117° |
| 2026-04-26 12:54 | 51.36634 | 6.68463 | 37311 ft | 466 kts | 118° |
| 2026-04-26 12:54 | 51.33605 | 6.77573 | 37312 ft | 466 kts | 118° |
| 2026-04-26 12:55 | 51.30541 | 6.86758 | 37309 ft | 466 kts | 118° |
| 2026-04-26 12:55 | 51.27478 | 6.95902 | 37306 ft | 465 kts | 118° |
| 2026-04-26 12:56 | 51.24435 | 7.04955 | 37299 ft | 465 kts | 118° |
| 2026-04-26 12:56 | 51.21350 | 7.14098 | 37287 ft | 465 kts | 118° |
| 2026-04-26 12:57 | 51.18288 | 7.23143 | 37280 ft | 465 kts | 118° |
| 2026-04-26 12:57 | 51.15197 | 7.32241 | 37285 ft | 465 kts | 118° |
| 2026-04-26 12:58 | 51.10551 | 7.45854 | 37279 ft | 464 kts | 118° |
| 2026-04-26 12:58 | 51.07469 | 7.54842 | 37279 ft | 464 kts | 118° |
| 2026-04-26 12:59 | 51.04364 | 7.63870 | 37268 ft | 464 kts | 118° |
| 2026-04-26 12:59 | 51.01338 | 7.72640 | 37267 ft | 464 kts | 118° |
| 2026-04-26 13:00 | 50.98226 | 7.81623 | 37266 ft | 464 kts | 119° |
| 2026-04-26 13:00 | 50.95041 | 7.90560 | 37257 ft | 464 kts | 122° |
| 2026-04-26 13:01 | 50.91331 | 7.98885 | 37256 ft | 463 kts | 129° |
| 2026-04-26 13:01 | 50.86962 | 8.06497 | 37258 ft | 463 kts | 136° |
| 2026-04-26 13:02 | 50.82315 | 8.13552 | 37272 ft | 463 kts | 136° |
| 2026-04-26 13:02 | 50.77680 | 8.20584 | 37276 ft | 463 kts | 136° |
| 2026-04-26 13:03 | 50.72998 | 8.27690 | 37276 ft | 463 kts | 136° |
| 2026-04-26 13:03 | 50.68370 | 8.34698 | 37272 ft | 462 kts | 136° |
| 2026-04-26 13:04 | 50.63724 | 8.41712 | 37272 ft | 462 kts | 136° |
| 2026-04-26 13:04 | 50.59085 | 8.48694 | 37271 ft | 462 kts | 136° |
| 2026-04-26 13:05 | 50.54396 | 8.55734 | 37276 ft | 462 kts | 136° |
| 2026-04-26 13:05 | 50.49736 | 8.62713 | 37274 ft | 463 kts | 137° |
| 2026-04-26 13:06 | 50.45162 | 8.69546 | 37275 ft | 462 kts | 137° |
| 2026-04-26 13:06 | 50.40531 | 8.76447 | 37277 ft | 462 kts | 137° |
| 2026-04-26 13:07 | 50.36194 | 8.83920 | 37278 ft | 463 kts | 129° |
| 2026-04-26 13:07 | 50.32545 | 8.92199 | 37279 ft | 463 kts | 121° |
| 2026-04-26 13:08 | 50.29630 | 9.01146 | 37285 ft | 464 kts | 114° |
| 2026-04-26 13:08 | 50.26986 | 9.10354 | 37284 ft | 464 kts | 114° |
| 2026-04-26 13:09 | 50.24335 | 9.19526 | 37281 ft | 464 kts | 115° |
| 2026-04-26 13:09 | 50.21668 | 9.28675 | 37281 ft | 464 kts | 115° |
| 2026-04-26 13:10 | 50.18995 | 9.37787 | 37284 ft | 464 kts | 115° |
| 2026-04-26 13:10 | 50.16302 | 9.46941 | 37278 ft | 465 kts | 115° |
| 2026-04-26 13:11 | 50.13601 | 9.56083 | 37275 ft | 465 kts | 115° |
| 2026-04-26 13:11 | 50.10941 | 9.65048 | 37273 ft | 465 kts | 115° |
| 2026-04-26 13:12 | 50.08672 | 9.74441 | 37276 ft | 466 kts | 107° |
| 2026-04-26 13:12 | 50.07356 | 9.84280 | 37281 ft | 465 kts | 97° |
| 2026-04-26 13:13 | 50.07031 | 9.94365 | 37278 ft | 465 kts | 89° |
| 2026-04-26 13:13 | 50.07158 | 10.04383 | 37274 ft | 465 kts | 88° |
| 2026-04-26 13:14 | 50.07260 | 10.14399 | 37273 ft | 466 kts | 89° |
| 2026-04-26 13:14 | 50.07138 | 10.24494 | 37272 ft | 466 kts | 94° |
| 2026-04-26 13:15 | 50.06313 | 10.34437 | 37271 ft | 466 kts | 99° |
| 2026-04-26 13:15 | 50.05279 | 10.44376 | 37263 ft | 467 kts | 99° |
| 2026-04-26 13:16 | 50.04242 | 10.54311 | 37268 ft | 467 kts | 99° |
| 2026-04-26 13:16 | 50.03201 | 10.64289 | 37260 ft | 467 kts | 99° |
| 2026-04-26 13:17 | 50.01644 | 10.79105 | 37255 ft | 467 kts | 100° |
| 2026-04-26 13:18 | 50.00055 | 10.94028 | 37248 ft | 468 kts | 100° |
| 2026-04-26 13:19 | 49.98452 | 11.08897 | 37254 ft | 468 kts | 100° |
| 2026-04-26 13:19 | 49.97341 | 11.18876 | 37260 ft | 467 kts | 102° |
| 2026-04-26 13:20 | 49.95701 | 11.28588 | 37257 ft | 466 kts | 108° |
| 2026-04-26 13:20 | 49.93672 | 11.38112 | 37254 ft | 467 kts | 109° |
| 2026-04-26 13:21 | 49.91814 | 11.47717 | 37255 ft | 467 kts | 106° |
| 2026-04-26 13:21 | 49.90035 | 11.57432 | 37261 ft | 468 kts | 106° |
| 2026-04-26 13:22 | 49.88356 | 11.67142 | 37241 ft | 468 kts | 103° |
| 2026-04-26 13:22 | 49.87276 | 11.77176 | 37246 ft | 469 kts | 98° |
| 2026-04-26 13:23 | 49.86414 | 11.87215 | 37247 ft | 469 kts | 98° |
| 2026-04-26 13:23 | 49.85534 | 11.97182 | 37243 ft | 469 kts | 98° |
| 2026-04-26 13:24 | 49.84629 | 12.07225 | 37249 ft | 468 kts | 98° |
| 2026-04-26 13:24 | 49.83729 | 12.17145 | 37245 ft | 468 kts | 98° |
| 2026-04-26 13:25 | 49.82814 | 12.27117 | 37248 ft | 469 kts | 98° |
| 2026-04-26 13:25 | 49.81744 | 12.37065 | 37243 ft | 469 kts | 103° |
| 2026-04-26 13:26 | 49.79754 | 12.46684 | 37244 ft | 469 kts | 113° |
| 2026-04-26 13:26 | 49.76811 | 12.55570 | 37240 ft | 467 kts | 123° |
| 2026-04-26 13:27 | 49.73161 | 12.63870 | 37242 ft | 466 kts | 126° |
| 2026-04-26 13:27 | 49.69517 | 12.71937 | 37246 ft | 467 kts | 127° |
| 2026-04-26 13:28 | 49.65820 | 12.80139 | 37246 ft | 467 kts | 126° |
| 2026-04-26 13:28 | 49.62118 | 12.88353 | 37246 ft | 467 kts | 126° |
| 2026-04-26 13:29 | 49.58419 | 12.96543 | 37243 ft | 467 kts | 126° |
| 2026-04-26 13:29 | 49.54705 | 13.04742 | 37245 ft | 467 kts | 126° |
| 2026-04-26 13:30 | 49.51000 | 13.12896 | 37248 ft | 467 kts | 126° |
| 2026-04-26 13:30 | 49.47263 | 13.21095 | 37247 ft | 467 kts | 126° |
| 2026-04-26 13:31 | 49.43538 | 13.29244 | 37244 ft | 468 kts | 126° |
| 2026-04-26 13:31 | 49.39795 | 13.37407 | 37242 ft | 468 kts | 126° |
| 2026-04-26 13:32 | 49.36037 | 13.45577 | 37245 ft | 468 kts | 126° |
| 2026-04-26 13:32 | 49.32291 | 13.53698 | 37245 ft | 468 kts | 126° |
| 2026-04-26 13:33 | 49.28542 | 13.61799 | 37243 ft | 467 kts | 126° |
| 2026-04-26 13:33 | 49.24752 | 13.69966 | 37238 ft | 467 kts | 127° |
| 2026-04-26 13:34 | 49.20987 | 13.78054 | 37239 ft | 467 kts | 127° |
| 2026-04-26 13:34 | 49.17204 | 13.86154 | 37238 ft | 467 kts | 127° |
| 2026-04-26 13:35 | 49.13440 | 13.94193 | 37237 ft | 467 kts | 127° |
| 2026-04-26 13:35 | 49.09651 | 14.02259 | 37237 ft | 467 kts | 127° |
| 2026-04-26 13:36 | 49.05861 | 14.10307 | 37231 ft | 467 kts | 127° |
| 2026-04-26 13:36 | 49.02053 | 14.18369 | 37503 ft | 468 kts | 127° |
| 2026-04-26 13:36 | 49.00169 | 14.22347 | 37046 ft | 464 kts | 127° |
| 2026-04-26 13:37 | 48.98272 | 14.26350 | 37178 ft | 465 kts | 126° |
| 2026-04-26 13:37 | 48.94799 | 14.34731 | 37229 ft | 469 kts | 119° |
| 2026-04-26 13:38 | 48.91981 | 14.43782 | 37237 ft | 470 kts | 112° |
| 2026-04-26 13:38 | 48.89523 | 14.52810 | 37235 ft | 470 kts | 112° |
| 2026-04-26 13:39 | 48.87007 | 14.62020 | 37236 ft | 470 kts | 112° |
| 2026-04-26 13:39 | 48.84482 | 14.71194 | 37237 ft | 470 kts | 113° |
| 2026-04-26 13:40 | 48.81948 | 14.80343 | 37227 ft | 470 kts | 113° |
| 2026-04-26 13:40 | 48.79400 | 14.89501 | 37235 ft | 470 kts | 113° |
| 2026-04-26 13:41 | 48.76846 | 14.98646 | 37230 ft | 471 kts | 113° |
| 2026-04-26 13:41 | 48.74268 | 15.07840 | 37228 ft | 471 kts | 113° |
| 2026-04-26 13:42 | 48.71700 | 15.16970 | 37402 ft | 471 kts | 113° |
| 2026-04-26 13:42 | 48.69136 | 15.26049 | 37281 ft | 469 kts | 113° |
| 2026-04-26 13:43 | 48.66558 | 15.35142 | 37235 ft | 469 kts | 113° |
| 2026-04-26 13:43 | 48.63954 | 15.44285 | 37229 ft | 469 kts | 113° |
| 2026-04-26 13:44 | 48.61367 | 15.53340 | 37227 ft | 470 kts | 113° |
| 2026-04-26 13:44 | 48.58784 | 15.62345 | 37228 ft | 470 kts | 113° |
| 2026-04-26 13:45 | 48.56175 | 15.71409 | 37230 ft | 470 kts | 114° |
| 2026-04-26 13:45 | 48.53550 | 15.80499 | 37234 ft | 470 kts | 114° |
| 2026-04-26 13:46 | 48.50937 | 15.89509 | 37235 ft | 471 kts | 114° |
| 2026-04-26 13:46 | 48.48309 | 15.98536 | 37233 ft | 470 kts | 114° |
| 2026-04-26 13:47 | 48.45664 | 16.07586 | 37230 ft | 470 kts | 114° |
| 2026-04-26 13:47 | 48.43021 | 16.16595 | 37232 ft | 471 kts | 114° |
| 2026-04-26 13:48 | 48.40355 | 16.25650 | 37231 ft | 471 kts | 114° |
| 2026-04-26 13:48 | 48.37691 | 16.34667 | 37235 ft | 472 kts | 114° |
| 2026-04-26 13:49 | 48.35034 | 16.43629 | 37239 ft | 472 kts | 114° |
| 2026-04-26 13:49 | 48.32352 | 16.52642 | 37242 ft | 471 kts | 114° |
| 2026-04-26 13:50 | 48.29656 | 16.61670 | 37242 ft | 472 kts | 114° |
| 2026-04-26 13:50 | 48.26964 | 16.70655 | 37241 ft | 471 kts | 114° |
| 2026-04-26 13:51 | 48.24265 | 16.79625 | 37239 ft | 472 kts | 114° |
| 2026-04-26 13:51 | 48.21562 | 16.88572 | 37235 ft | 473 kts | 114° |
| 2026-04-26 13:52 | 48.18961 | 16.97545 | 37233 ft | 473 kts | 110° |
| 2026-04-26 13:52 | 48.17872 | 17.02200 | 37041 ft | 476 kts | 107° |
| 2026-04-26 13:52 | 48.16851 | 17.06923 | 36139 ft | 480 kts | 107° |
| 2026-04-26 13:52 | 48.15843 | 17.11653 | 35379 ft | 480 kts | 107° |
| 2026-04-26 13:53 | 48.14828 | 17.16421 | 34652 ft | 480 kts | 107° |
| 2026-04-26 13:53 | 48.13808 | 17.21184 | 33986 ft | 479 kts | 107° |
| 2026-04-26 13:53 | 48.12787 | 17.25932 | 33303 ft | 480 kts | 107° |
| 2026-04-26 13:53 | 48.11761 | 17.30678 | 32610 ft | 480 kts | 107° |
| 2026-04-26 13:54 | 48.10731 | 17.35425 | 31894 ft | 481 kts | 107° |
| 2026-04-26 13:54 | 48.09703 | 17.40150 | 31170 ft | 482 kts | 107° |
| 2026-04-26 13:54 | 48.08659 | 17.44940 | 30431 ft | 484 kts | 107° |
| 2026-04-26 13:55 | 48.06574 | 17.54459 | 28902 ft | 486 kts | 106° |
| 2026-04-26 13:55 | 48.05877 | 17.57632 | 28396 ft | 487 kts | 106° |
| 2026-04-26 13:55 | 48.03419 | 17.68782 | 26887 ft | 481 kts | 107° |
| 2026-04-26 13:56 | 48.02453 | 17.73151 | 26419 ft | 476 kts | 107° |
| 2026-04-26 13:56 | 48.01418 | 17.77823 | 25913 ft | 471 kts | 106° |
| 2026-04-26 13:56 | 48.00390 | 17.82453 | 25395 ft | 467 kts | 106° |
| 2026-04-26 13:56 | 47.99376 | 17.87011 | 24897 ft | 463 kts | 106° |
| 2026-04-26 13:57 | 47.98364 | 17.91552 | 24394 ft | 460 kts | 106° |
| 2026-04-26 13:57 | 47.97367 | 17.96013 | 23897 ft | 457 kts | 105° |
| 2026-04-26 13:57 | 47.96361 | 18.00503 | 23387 ft | 454 kts | 105° |
| 2026-04-26 13:57 | 47.95369 | 18.04928 | 22889 ft | 451 kts | 105° |
| 2026-04-26 13:58 | 47.94384 | 18.09305 | 22388 ft | 448 kts | 105° |
| 2026-04-26 13:58 | 47.93390 | 18.13718 | 21882 ft | 446 kts | 105° |
| 2026-04-26 13:58 | 47.92402 | 18.18094 | 21371 ft | 443 kts | 105° |
| 2026-04-26 13:58 | 47.91434 | 18.22378 | 20869 ft | 441 kts | 105° |
| 2026-04-26 13:59 | 47.90455 | 18.26696 | 20360 ft | 438 kts | 104° |
| 2026-04-26 13:59 | 47.89487 | 18.30963 | 19856 ft | 436 kts | 104° |
| 2026-04-26 13:59 | 47.88520 | 18.35214 | 19378 ft | 432 kts | 104° |
| 2026-04-26 14:00 | 47.85265 | 18.47727 | 19166 ft | 440 kts | 122° |
| 2026-04-26 14:00 | 47.83176 | 18.51004 | 19174 ft | 444 kts | 141° |
| 2026-04-26 14:00 | 47.81493 | 18.52719 | 19190 ft | 444 kts | 147° |
| 2026-04-26 14:01 | 47.77995 | 18.55924 | 18870 ft | 441 kts | 148° |
| 2026-04-26 14:01 | 47.75357 | 18.58330 | 18014 ft | 448 kts | 147° |
| 2026-04-26 14:01 | 47.72750 | 18.60769 | 17236 ft | 450 kts | 147° |
| 2026-04-26 14:01 | 47.70140 | 18.63342 | 16663 ft | 446 kts | 142° |
| 2026-04-26 14:02 | 47.67851 | 18.66183 | 16149 ft | 441 kts | 135° |
| 2026-04-26 14:02 | 47.65744 | 18.69448 | 15595 ft | 436 kts | 130° |
| 2026-04-26 14:02 | 47.63757 | 18.72778 | 15038 ft | 432 kts | 129° |
| 2026-04-26 14:02 | 47.61791 | 18.76091 | 14478 ft | 429 kts | 130° |
| 2026-04-26 14:03 | 47.59832 | 18.79356 | 13920 ft | 426 kts | 130° |
| 2026-04-26 14:03 | 47.57861 | 18.82605 | 13391 ft | 422 kts | 130° |
| 2026-04-26 14:03 | 47.55886 | 18.85838 | 12869 ft | 417 kts | 130° |
| 2026-04-26 14:03 | 47.53963 | 18.88980 | 12486 ft | 409 kts | 131° |
| 2026-04-26 14:04 | 47.52084 | 18.92046 | 12138 ft | 401 kts | 130° |
| 2026-04-26 14:04 | 47.50223 | 18.95083 | 11771 ft | 393 kts | 130° |
| 2026-04-26 14:04 | 47.48396 | 18.98065 | 11400 ft | 385 kts | 130° |
| 2026-04-26 14:04 | 47.46623 | 19.00953 | 11055 ft | 379 kts | 130° |
| 2026-04-26 14:05 | 47.44867 | 19.03810 | 10682 ft | 373 kts | 130° |
| 2026-04-26 14:05 | 47.43128 | 19.06639 | 10294 ft | 368 kts | 130° |
| 2026-04-26 14:05 | 47.41428 | 19.09399 | 9937 ft | 363 kts | 130° |
| 2026-04-26 14:05 | 47.39743 | 19.12132 | 9580 ft | 357 kts | 130° |
| 2026-04-26 14:06 | 47.38094 | 19.14805 | 9224 ft | 350 kts | 130° |
| 2026-04-26 14:06 | 47.36475 | 19.17420 | 8833 ft | 340 kts | 130° |
| 2026-04-26 14:06 | 47.34905 | 19.19958 | 8366 ft | 330 kts | 130° |
| 2026-04-26 14:06 | 47.33404 | 19.22381 | 7904 ft | 318 kts | 130° |
| 2026-04-26 14:07 | 47.31937 | 19.24750 | 7429 ft | 307 kts | 130° |
| 2026-04-26 14:07 | 47.30515 | 19.27042 | 7008 ft | 302 kts | 129° |
| 2026-04-26 14:07 | 47.29098 | 19.29327 | 6655 ft | 299 kts | 129° |
| 2026-04-26 14:07 | 47.27701 | 19.31579 | 6342 ft | 295 kts | 129° |
| 2026-04-26 14:08 | 47.26327 | 19.33789 | 6026 ft | 291 kts | 129° |
| 2026-04-26 14:08 | 47.24964 | 19.35980 | 5677 ft | 290 kts | 129° |
| 2026-04-26 14:08 | 47.23678 | 19.38198 | 5283 ft | 280 kts | 117° |
| 2026-04-26 14:08 | 47.23141 | 19.40794 | 4797 ft | 259 kts | 80° |
| 2026-04-26 14:09 | 47.23696 | 19.43148 | 4364 ft | 238 kts | 43° |
| 2026-04-26 14:09 | 47.24946 | 19.44626 | 4054 ft | 233 kts | 30° |
| 2026-04-26 14:09 | 47.26252 | 19.46020 | 3747 ft | 232 kts | 33° |
| 2026-04-26 14:09 | 47.27507 | 19.47512 | 3437 ft | 230 kts | 34° |
| 2026-04-26 14:10 | 47.28882 | 19.48586 | 3061 ft | 222 kts | 4° |
| 2026-04-26 14:10 | 47.30352 | 19.48192 | 2836 ft | 214 kts | 329° |
| 2026-04-26 14:10 | 47.31456 | 19.46876 | 2857 ft | 199 kts | 317° |
| 2026-04-26 14:10 | 47.32391 | 19.45439 | 2959 ft | 184 kts | 315° |
| 2026-04-26 14:11 | 47.33924 | 19.42927 | 2837 ft | 145 kts | 316° |
| 2026-04-26 14:11 | 47.34580 | 19.41862 | 2627 ft | 140 kts | 314° |
| 2026-04-26 14:11 | 47.35234 | 19.40801 | 2436 ft | 139 kts | 318° |
| 2026-04-26 14:12 | 47.35889 | 19.39743 | 2251 ft | 139 kts | 316° |
| 2026-04-26 14:12 | 47.36538 | 19.38699 | 2070 ft | 138 kts | 313° |
| 2026-04-26 14:12 | 47.37188 | 19.37638 | 1880 ft | 139 kts | 318° |
| 2026-04-26 14:12 | 47.37831 | 19.36606 | 1701 ft | 137 kts | 312° |
| 2026-04-26 14:13 | 47.39122 | 19.34514 | 1346 ft | 138 kts | 314° |
| 2026-04-26 14:13 | 47.39767 | 19.33476 | 1163 ft | 137 kts | 311° |
| 2026-04-26 14:13 | 47.40406 | 19.32439 | 978 ft | 136 kts | 311° |
| 2026-04-26 14:14 | 47.41048 | 19.31397 | 797 ft | 136 kts | 316° |
| 2026-04-26 14:14 | 47.41683 | 19.30374 | 613 ft | 136 kts | 312° |
| 2026-04-26 14:14 | 47.42316 | 19.29353 | 444 ft | 133 kts | 313° |
| 2026-04-26 14:14 | 47.42920 | 19.28393 | 427 ft | 105 kts | 314° |
| 2026-04-26 14:15 | 47.43204 | 19.27914 | 440 ft | 28 kts | 309° |
| 2026-04-26 14:15 | 47.43303 | 19.27752 | 446 ft | 16 kts | 301° |
| 2026-04-26 14:15 | 47.43337 | 19.27618 | 449 ft | 12 kts | 281° |
| 2026-04-26 14:15 | 47.43350 | 19.27508 | 452 ft | 9 kts | 281° |
| 2026-04-26 14:16 | 47.43362 | 19.27426 | 454 ft | 6 kts | 283° |
| 2026-04-26 14:16 | 47.43375 | 19.27353 | 456 ft | 7 kts | 285° |
| 2026-04-26 14:16 | 47.43391 | 19.27261 | 459 ft | 11 kts | 284° |
| 2026-04-26 14:16 | 47.43411 | 19.27126 | 463 ft | 15 kts | 282° |
| 2026-04-26 14:17 | 47.43448 | 19.26964 | 467 ft | 16 kts | 302° |
| 2026-04-26 14:17 | 47.43516 | 19.26846 | 470 ft | 13 kts | 313° |
| 2026-04-26 14:17 | 47.43579 | 19.26751 | 472 ft | 12 kts | 313° |
| 2026-04-26 14:17 | 47.43633 | 19.26666 | 474 ft | 10 kts | 312° |
| 2026-04-26 14:18 | 47.43681 | 19.26587 | 475 ft | 9 kts | 310° |
| 2026-04-26 14:18 | 47.43724 | 19.26513 | 476 ft | 8 kts | 311° |
| 2026-04-26 14:18 | 47.43752 | 19.26423 | 477 ft | 11 kts | 258° |
| 2026-04-26 14:18 | 47.43682 | 19.26322 | 477 ft | 15 kts | 219° |
| 2026-04-26 14:19 | 47.43602 | 19.26218 | 477 ft | 12 kts | 223° |
| 2026-04-26 14:19 | 47.43536 | 19.26131 | 476 ft | 12 kts | 222° |
| 2026-04-26 14:19 | 47.43476 | 19.26057 | 475 ft | 9 kts | 196° |
| 2026-04-26 14:19 | 47.43422 | 19.26112 | 475 ft | 8 kts | 132° |
| 2026-04-26 14:20 | 47.43416 | 19.26121 | 475 ft | 0 kts | 133° |